Skip Navigation Links Skip Navigation Links

Current Weather

Merkel Field Sylacauga Muni, Sylacauga, Ala.

For information only: do not use for flight planning or navigation.
Latest weather
Observation time Thursday, January 27, 2022 11:15 PM CST
Local time Thursday, January 27, 2022 11:39 PM CST
Flight conditions Visual Meteorological Conditions
Winds
Wind speed calm
Visibility 10 mi.
Sky condition
Ceiling 11,000 ft. overcast
Cloud layer overcast 11,000 ft.
Temperature 38°F
Dewpoint 33°F
Altimeter 30.19 in.Hg
Derived measurements
Relative humidity 84%
Wind chill 38°F
Density altitude -1088 ft.
Remarks
Fully automated report.
Automated weather observing station with precipitation discriminator.
METAR KSCD 280515Z AUTO 00000KT 10SM OVC110 03/01 A3019 RMK AO2 T00310007

Settings

Location code

InnerDrive.Weather 4.0.6770.0 Release CLR 4.0.30319.42000
Copyright ©2018 Inner Drive Technology. All rights reserved. Portions Copyright ©1986-2018 David Braverman.

Find weather

Site navigation


Skip Navigation Links

Place info

Page info

PayPal - The safer, easier way to pay online!

Return home.

Copyright ©2022 Inner Drive Technology. Purveyors of fine, hand-crafted computer software. Page printed 2022-01-28T05:39:53 UTC.